PWSweather.com
Personal Weather Stations
Station Observations
IFREISTO2
Freiston, FreistonGB PE22 0QJ

FreistonFreistonGB PE22 0QJ

Lat: 52.964, Lon: 0.041

Elevation: 16

Station Type: Fine Offset

http://www.midlifedad.me.uk/weather

High Low Average
Temperature 41.5°F5.3°C 32.0°F0.0°C 35.3°F1.8°C
Dew Point 33.0°F0.6°C 26.7°F-2.9°C 28.9°F-1.7°C
Winds 17.8 mph 28.6 kmh 0.7 mph 1.1 kmh 8.0 mph SE12.9 kmh SE
Wind Gusts 28.2 mph45.4 kmh 2.2 mph3.5 kmh 13.0 mph20.9 kmh
Humidity 85% 68% 77%
Pressure 29.44 in997.0 mb 29.15 in987.1 mb -
Precipitation 0.01 in0.3 mm - -
Hour Temp Dew Point Humidity Winds Wind Gusts Pressure Precip Precip Rate Daily Precip Total
12:00 AM 33.1°F0.6°C 28.8°F-1.8°C 84% 16.0 mph E25.7 kmh E 22.8 mph36.7 kmh 29.18 in988.1 mb 0.00 in0.0 mm 0.00 in0.0 mm 0.00 in0.0 mm
12:05 AM 33.1°F0.6°C 28.8°F-1.8°C 84% 16.9 mph E27.2 kmh E 22.8 mph36.7 kmh 29.18 in988.1 mb 0.00 in0.0 mm 0.00 in0.0 mm 0.00 in0.0 mm
12:10 AM 33.1°F0.6°C 28.8°F-1.8°C 84% 16.7 mph E26.9 kmh E 22.8 mph36.7 kmh 29.18 in988.1 mb 0.00 in0.0 mm 0.00 in0.0 mm 0.00 in0.0 mm
12:15 AM 33.1°F0.6°C 28.8°F-1.8°C 84% 16.0 mph E25.7 kmh E 22.8 mph36.7 kmh 29.18 in988.1 mb 0.00 in0.0 mm 0.00 in0.0 mm 0.00 in0.0 mm
12:20 AM 33.1°F0.6°C 28.8°F-1.8°C 84% 15.5 mph E24.9 kmh E 21.3 mph34.3 kmh 29.18 in988.1 mb 0.00 in0.0 mm 0.00 in0.0 mm 0.00 in0.0 mm
12:25 AM 33.1°F0.6°C 28.8°F-1.8°C 84% 14.9 mph E24.0 kmh E 22.8 mph36.7 kmh 29.18 in988.1 mb 0.00 in0.0 mm 0.00 in0.0 mm 0.00 in0.0 mm
12:30 AM 33.1°F0.6°C 28.8°F-1.8°C 84% 15.0 mph E24.1 kmh E 22.8 mph36.7 kmh 29.18 in988.1 mb 0.00 in0.0 mm 0.00 in0.0 mm 0.00 in0.0 mm
12:40 AM 33.3°F0.7°C 28.7°F-1.8°C 83% 15.3 mph E24.6 kmh E 21.3 mph34.3 kmh 29.18 in988.1 mb 0.00 in0.0 mm 0.00 in0.0 mm 0.00 in0.0 mm
12:45 AM 33.3°F0.7°C 28.7°F-1.8°C 83% 14.8 mph E23.8 kmh E 23.5 mph37.8 kmh 29.18 in988.1 mb 0.00 in0.0 mm 0.00 in0.0 mm 0.00 in0.0 mm
12:50 AM 33.3°F0.7°C 28.7°F-1.8°C 83% 16.2 mph E26.1 kmh E 23.5 mph37.8 kmh 29.18 in988.1 mb 0.00 in0.0 mm 0.00 in0.0 mm 0.00 in0.0 mm
12:55 AM 33.3°F0.7°C 28.7°F-1.8°C 83% 16.7 mph E26.9 kmh E 22.1 mph35.6 kmh 29.18 in988.1 mb 0.00 in0.0 mm 0.00 in0.0 mm 0.00 in0.0 mm
01:00 AM 33.3°F0.7°C 28.7°F-1.8°C 83% 16.4 mph E26.4 kmh E 22.8 mph36.7 kmh 29.18 in988.1 mb 0.00 in0.0 mm 0.00 in0.0 mm 0.00 in0.0 mm
01:05 AM 33.4°F0.8°C 28.8°F-1.8°C 83% 16.5 mph E26.6 kmh E 22.8 mph36.7 kmh 29.18 in988.1 mb 0.00 in0.0 mm 0.00 in0.0 mm 0.00 in0.0 mm
01:10 AM 33.3°F0.7°C 28.7°F-1.8°C 83% 16.8 mph E27.0 kmh E 24.4 mph39.3 kmh 29.18 in988.1 mb 0.00 in0.0 mm 0.00 in0.0 mm 0.00 in0.0 mm
01:15 AM 33.3°F0.7°C 28.7°F-1.8°C 83% 16.9 mph E27.2 kmh E 24.4 mph39.3 kmh 29.18 in988.1 mb 0.00 in0.0 mm 0.00 in0.0 mm 0.00 in0.0 mm
01:20 AM 33.3°F0.7°C 28.7°F-1.8°C 83% 16.5 mph E26.6 kmh E 23.5 mph37.8 kmh 29.18 in988.1 mb 0.00 in0.0 mm 0.00 in0.0 mm 0.00 in0.0 mm
01:25 AM 33.3°F0.7°C 28.7°F-1.8°C 83% 15.8 mph E25.4 kmh E 23.5 mph37.8 kmh 29.18 in988.1 mb 0.00 in0.0 mm 0.00 in0.0 mm 0.00 in0.0 mm
01:30 AM 33.4°F0.8°C 28.8°F-1.8°C 83% 15.1 mph E24.3 kmh E 22.1 mph35.6 kmh 29.18 in988.1 mb 0.00 in0.0 mm 0.00 in0.0 mm 0.00 in0.0 mm
01:35 AM 33.4°F0.8°C 28.8°F-1.8°C 83% 16.4 mph E26.4 kmh E 25.1 mph40.4 kmh 29.18 in988.1 mb 0.00 in0.0 mm 0.00 in0.0 mm 0.00 in0.0 mm
01:40 AM 33.4°F0.8°C 28.5°F-1.9°C 82% 17.7 mph E28.5 kmh E 25.1 mph40.4 kmh 29.18 in988.1 mb 0.00 in0.0 mm 0.00 in0.0 mm 0.00 in0.0 mm
01:45 AM 33.4°F0.8°C 28.5°F-1.9°C 82% 17.3 mph E27.8 kmh E 24.4 mph39.3 kmh 29.18 in988.1 mb 0.00 in0.0 mm 0.00 in0.0 mm 0.00 in0.0 mm
01:50 AM 33.6°F0.9°C 28.7°F-1.8°C 82% 16.2 mph E26.1 kmh E 24.4 mph39.3 kmh 29.18 in988.1 mb 0.00 in0.0 mm 0.00 in0.0 mm 0.00 in0.0 mm
01:55 AM 33.6°F0.9°C 28.7°F-1.8°C 82% 14.9 mph E24.0 kmh E 22.8 mph36.7 kmh 29.18 in988.1 mb 0.00 in0.0 mm 0.00 in0.0 mm 0.00 in0.0 mm
02:00 AM 33.6°F0.9°C 28.7°F-1.8°C 82% 15.2 mph E24.5 kmh E 25.1 mph40.4 kmh 29.18 in988.1 mb 0.00 in0.0 mm 0.00 in0.0 mm 0.00 in0.0 mm
02:05 AM 33.6°F0.9°C 28.4°F-2.0°C 81% 15.8 mph E25.4 kmh E 25.1 mph40.4 kmh 29.18 in988.1 mb 0.00 in0.0 mm 0.00 in0.0 mm 0.00 in0.0 mm
02:10 AM 33.6°F0.9°C 28.4°F-2.0°C 81% 14.9 mph E24.0 kmh E 22.1 mph35.6 kmh 29.18 in988.1 mb 0.00 in0.0 mm 0.00 in0.0 mm 0.00 in0.0 mm
02:15 AM 33.8°F1.0°C 28.3°F-2.1°C 80% 14.8 mph E23.8 kmh E 22.8 mph36.7 kmh 29.18 in988.1 mb 0.00 in0.0 mm 0.00 in0.0 mm 0.00 in0.0 mm
02:20 AM 33.8°F1.0°C 28.3°F-2.1°C 80% 16.3 mph E26.2 kmh E 22.8 mph36.7 kmh 29.18 in988.1 mb 0.00 in0.0 mm 0.00 in0.0 mm 0.00 in0.0 mm
02:25 AM 33.8°F1.0°C 28.3°F-2.1°C 80% 16.2 mph E26.1 kmh E 22.8 mph36.7 kmh 29.18 in988.1 mb 0.00 in0.0 mm 0.00 in0.0 mm 0.00 in0.0 mm
02:30 AM 33.8°F1.0°C 28.0°F-2.2°C 79% 14.8 mph E23.8 kmh E 22.8 mph36.7 kmh 29.18 in988.1 mb 0.00 in0.0 mm 0.00 in0.0 mm 0.00 in0.0 mm
02:35 AM 33.8°F1.0°C 28.0°F-2.2°C 79% 16.0 mph E25.7 kmh E 22.8 mph36.7 kmh 29.18 in988.1 mb 0.00 in0.0 mm 0.00 in0.0 mm 0.00 in0.0 mm
02:40 AM 33.8°F1.0°C 28.0°F-2.2°C 79% 17.3 mph E27.8 kmh E 23.5 mph37.8 kmh 29.18 in988.1 mb 0.00 in0.0 mm 0.00 in0.0 mm 0.00 in0.0 mm
02:45 AM 33.8°F1.0°C 28.0°F-2.2°C 79% 15.4 mph E24.8 kmh E 23.5 mph37.8 kmh 29.18 in988.1 mb 0.00 in0.0 mm 0.00 in0.0 mm 0.00 in0.0 mm
02:50 AM 33.8°F1.0°C 28.0°F-2.2°C 79% 14.6 mph E23.5 kmh E 22.8 mph36.7 kmh 29.18 in988.1 mb 0.00 in0.0 mm 0.00 in0.0 mm 0.00 in0.0 mm
02:55 AM 34.0°F1.1°C 28.2°F-2.1°C 79% 16.2 mph ENE26.1 kmh ENE 24.4 mph39.3 kmh 29.18 in988.1 mb 0.00 in0.0 mm 0.00 in0.0 mm 0.00 in0.0 mm
03:00 AM 34.0°F1.1°C 27.8°F-2.3°C 78% 17.8 mph E28.6 kmh E 28.2 mph45.4 kmh 29.18 in988.1 mb 0.00 in0.0 mm 0.00 in0.0 mm 0.00 in0.0 mm
03:15 AM 33.8°F1.0°C 27.7°F-2.4°C 78% 16.9 mph E27.2 kmh E 23.5 mph37.8 kmh 29.17 in987.8 mb 0.00 in0.0 mm 0.00 in0.0 mm 0.00 in0.0 mm
03:20 AM 33.8°F1.0°C 27.7°F-2.4°C 78% 17.0 mph E27.4 kmh E 23.5 mph37.8 kmh 29.17 in987.8 mb 0.00 in0.0 mm 0.00 in0.0 mm 0.00 in0.0 mm
03:25 AM 34.0°F1.1°C 27.8°F-2.3°C 78% 16.1 mph ENE25.9 kmh ENE 23.5 mph37.8 kmh 29.17 in987.8 mb 0.00 in0.0 mm 0.00 in0.0 mm 0.00 in0.0 mm
03:30 AM 34.0°F1.1°C 27.5°F-2.5°C 77% 16.4 mph ENE26.4 kmh ENE 27.3 mph43.9 kmh 29.17 in987.8 mb 0.00 in0.0 mm 0.00 in0.0 mm 0.00 in0.0 mm
03:35 AM 34.0°F1.1°C 27.5°F-2.5°C 77% 16.8 mph ENE27.0 kmh ENE 27.3 mph43.9 kmh 29.17 in987.8 mb 0.00 in0.0 mm 0.00 in0.0 mm 0.00 in0.0 mm
03:40 AM 34.0°F1.1°C 27.5°F-2.5°C 77% 16.3 mph NE26.2 kmh NE 24.4 mph39.3 kmh 29.17 in987.8 mb 0.00 in0.0 mm 0.00 in0.0 mm 0.00 in0.0 mm
03:45 AM 34.0°F1.1°C 27.5°F-2.5°C 77% 15.8 mph NE25.4 kmh NE 25.1 mph40.4 kmh 29.17 in987.8 mb 0.00 in0.0 mm 0.00 in0.0 mm 0.00 in0.0 mm
03:50 AM 34.2°F1.2°C 27.4°F-2.6°C 76% 15.5 mph NE24.9 kmh NE 25.1 mph40.4 kmh 29.17 in987.8 mb 0.00 in0.0 mm 0.00 in0.0 mm 0.00 in0.0 mm
03:55 AM 34.2°F1.2°C 27.4°F-2.6°C 76% 16.2 mph ENE26.1 kmh ENE 22.8 mph36.7 kmh 29.16 in987.5 mb 0.00 in0.0 mm 0.00 in0.0 mm 0.00 in0.0 mm
04:00 AM 34.2°F1.2°C 27.4°F-2.6°C 76% 15.6 mph ENE25.1 kmh ENE 24.4 mph39.3 kmh 29.16 in987.5 mb 0.00 in0.0 mm 0.00 in0.0 mm 0.00 in0.0 mm
04:05 AM 34.2°F1.2°C 27.4°F-2.6°C 76% 15.3 mph NE24.6 kmh NE 25.1 mph40.4 kmh 29.16 in987.5 mb 0.00 in0.0 mm 0.00 in0.0 mm 0.00 in0.0 mm
04:10 AM 34.2°F1.2°C 27.4°F-2.6°C 76% 16.2 mph NE26.1 kmh NE 25.1 mph40.4 kmh 29.16 in987.5 mb 0.00 in0.0 mm 0.00 in0.0 mm 0.00 in0.0 mm
04:15 AM 34.3°F1.3°C 27.2°F-2.7°C 75% 16.6 mph NE26.7 kmh NE 25.9 mph41.7 kmh 29.16 in987.5 mb 0.00 in0.0 mm 0.00 in0.0 mm 0.00 in0.0 mm
04:20 AM 34.3°F1.3°C 27.2°F-2.7°C 75% 15.4 mph NE24.8 kmh NE 25.9 mph41.7 kmh 29.16 in987.5 mb 0.00 in0.0 mm 0.00 in0.0 mm 0.00 in0.0 mm
04:25 AM 34.2°F1.2°C 27.1°F-2.7°C 75% 13.4 mph NE21.6 kmh NE 20.6 mph33.2 kmh 29.16 in987.5 mb 0.00 in0.0 mm 0.00 in0.0 mm 0.00 in0.0 mm
04:30 AM 34.2°F1.2°C 27.1°F-2.7°C 75% 13.0 mph NE20.9 kmh NE 20.6 mph33.2 kmh 29.15 in987.1 mb 0.00 in0.0 mm 0.00 in0.0 mm 0.00 in0.0 mm
04:35 AM 34.2°F1.2°C 27.1°F-2.7°C 75% 14.2 mph NE22.9 kmh NE 22.8 mph36.7 kmh 29.16 in987.5 mb 0.00 in0.0 mm 0.00 in0.0 mm 0.00 in0.0 mm
04:40 AM 34.2°F1.2°C 27.1°F-2.7°C 75% 13.9 mph NE22.4 kmh NE 22.8 mph36.7 kmh 29.16 in987.5 mb 0.00 in0.0 mm 0.00 in0.0 mm 0.00 in0.0 mm
04:45 AM 34.2°F1.2°C 27.1°F-2.7°C 75% 12.8 mph NE20.6 kmh NE 22.8 mph36.7 kmh 29.16 in987.5 mb 0.00 in0.0 mm 0.00 in0.0 mm 0.00 in0.0 mm
04:50 AM 34.2°F1.2°C 27.1°F-2.7°C 75% 14.4 mph NE23.2 kmh NE 22.8 mph36.7 kmh 29.16 in987.5 mb 0.00 in0.0 mm 0.00 in0.0 mm 0.00 in0.0 mm
04:55 AM 34.2°F1.2°C 27.1°F-2.7°C 75% 14.4 mph NE23.2 kmh NE 22.8 mph36.7 kmh 29.16 in987.5 mb 0.00 in0.0 mm 0.00 in0.0 mm 0.00 in0.0 mm
05:00 AM 34.0°F1.1°C 26.9°F-2.8°C 75% 11.8 mph NE19.0 kmh NE 21.3 mph34.3 kmh 29.16 in987.5 mb 0.00 in0.0 mm 0.00 in0.0 mm 0.00 in0.0 mm
05:05 AM 33.8°F1.0°C 26.7°F-2.9°C 75% 10.1 mph NE16.3 kmh NE 18.3 mph29.5 kmh 29.16 in987.5 mb 0.00 in0.0 mm 0.00 in0.0 mm 0.00 in0.0 mm
05:10 AM 33.8°F1.0°C 26.7°F-2.9°C 75% 9.0 mph NE14.5 kmh NE 18.3 mph29.5 kmh 29.16 in987.5 mb 0.00 in0.0 mm 0.00 in0.0 mm 0.00 in0.0 mm
05:15 AM 33.8°F1.0°C 26.7°F-2.9°C 75% 9.3 mph NE15.0 kmh NE 16.8 mph27.0 kmh 29.16 in987.5 mb 0.00 in0.0 mm 0.00 in0.0 mm 0.00 in0.0 mm
05:20 AM 33.8°F1.0°C 26.7°F-2.9°C 75% 9.0 mph NE14.5 kmh NE 16.8 mph27.0 kmh 29.16 in987.5 mb 0.00 in0.0 mm 0.00 in0.0 mm 0.00 in0.0 mm
05:25 AM 33.6°F0.9°C 26.9°F-2.8°C 76% 7.1 mph NE11.4 kmh NE 11.4 mph18.3 kmh 29.16 in987.5 mb 0.00 in0.0 mm 0.00 in0.0 mm 0.00 in0.0 mm
05:30 AM 33.6°F0.9°C 26.9°F-2.8°C 76% 8.4 mph NE13.5 kmh NE 15.2 mph24.5 kmh 29.16 in987.5 mb 0.00 in0.0 mm 0.00 in0.0 mm 0.00 in0.0 mm
05:35 AM 33.6°F0.9°C 26.9°F-2.8°C 76% 8.7 mph NE14.0 kmh NE 15.2 mph24.5 kmh 29.15 in987.1 mb 0.00 in0.0 mm 0.00 in0.0 mm 0.00 in0.0 mm
05:40 AM 33.6°F0.9°C 27.2°F-2.7°C 77% 7.6 mph NE12.2 kmh NE 14.5 mph23.3 kmh 29.16 in987.5 mb 0.00 in0.0 mm 0.00 in0.0 mm 0.00 in0.0 mm
05:45 AM 33.4°F0.8°C 27.0°F-2.8°C 77% 7.0 mph NE11.3 kmh NE 11.4 mph18.3 kmh 29.16 in987.5 mb 0.00 in0.0 mm 0.00 in0.0 mm 0.00 in0.0 mm
05:50 AM 33.3°F0.7°C 26.8°F-2.9°C 77% 6.3 mph NE10.1 kmh NE 9.2 mph14.8 kmh 29.16 in987.5 mb 0.00 in0.0 mm 0.00 in0.0 mm 0.00 in0.0 mm
05:55 AM 33.3°F0.7°C 26.8°F-2.9°C 77% 6.7 mph NE10.8 kmh NE 10.7 mph17.2 kmh 29.16 in987.5 mb 0.00 in0.0 mm 0.00 in0.0 mm 0.00 in0.0 mm
06:00 AM 33.3°F0.7°C 26.8°F-2.9°C 77% 7.0 mph NE11.3 kmh NE 11.4 mph18.3 kmh 29.16 in987.5 mb 0.00 in0.0 mm 0.00 in0.0 mm 0.00 in0.0 mm
06:05 AM 33.3°F0.7°C 26.8°F-2.9°C 77% 6.9 mph NE11.1 kmh NE 11.4 mph18.3 kmh 29.16 in987.5 mb 0.00 in0.0 mm 0.00 in0.0 mm 0.00 in0.0 mm
06:10 AM 33.4°F0.8°C 27.3°F-2.6°C 78% 7.1 mph NE11.4 kmh NE 12.1 mph19.5 kmh 29.16 in987.5 mb 0.00 in0.0 mm 0.00 in0.0 mm 0.00 in0.0 mm
06:15 AM 33.6°F0.9°C 27.5°F-2.5°C 78% 7.3 mph NE11.7 kmh NE 12.1 mph19.5 kmh 29.16 in987.5 mb 0.00 in0.0 mm 0.00 in0.0 mm 0.00 in0.0 mm
06:20 AM 33.6°F0.9°C 27.5°F-2.5°C 78% 7.0 mph NE11.3 kmh NE 10.7 mph17.2 kmh 29.16 in987.5 mb 0.00 in0.0 mm 0.00 in0.0 mm 0.00 in0.0 mm
06:25 AM 33.4°F0.8°C 27.3°F-2.6°C 78% 6.4 mph NE10.3 kmh NE 9.8 mph15.8 kmh 29.16 in987.5 mb 0.00 in0.0 mm 0.00 in0.0 mm 0.00 in0.0 mm
06:30 AM 33.4°F0.8°C 27.3°F-2.6°C 78% 6.0 mph NE9.7 kmh NE 13.0 mph20.9 kmh 29.16 in987.5 mb 0.00 in0.0 mm 0.00 in0.0 mm 0.00 in0.0 mm
06:35 AM 33.6°F0.9°C 27.5°F-2.5°C 78% 8.0 mph ENE12.9 kmh ENE 16.8 mph27.0 kmh 29.16 in987.5 mb 0.00 in0.0 mm 0.00 in0.0 mm 0.00 in0.0 mm
06:40 AM 33.8°F1.0°C 27.7°F-2.4°C 78% 10.8 mph ENE17.4 kmh ENE 16.8 mph27.0 kmh 29.16 in987.5 mb 0.00 in0.0 mm 0.00 in0.0 mm 0.00 in0.0 mm
06:45 AM 34.0°F1.1°C 27.8°F-2.3°C 78% 10.2 mph ENE16.4 kmh ENE 15.9 mph25.6 kmh 29.16 in987.5 mb 0.00 in0.0 mm 0.00 in0.0 mm 0.00 in0.0 mm
06:50 AM 34.0°F1.1°C 27.8°F-2.3°C 78% 9.9 mph NE15.9 kmh NE 17.4 mph28.0 kmh 29.16 in987.5 mb 0.00 in0.0 mm 0.00 in0.0 mm 0.00 in0.0 mm
06:55 AM 34.0°F1.1°C 27.8°F-2.3°C 78% 11.0 mph NE17.7 kmh NE 19.0 mph30.6 kmh 29.16 in987.5 mb 0.00 in0.0 mm 0.00 in0.0 mm 0.00 in0.0 mm
07:00 AM 34.2°F1.2°C 28.0°F-2.2°C 78% 10.2 mph NE16.4 kmh NE 19.0 mph30.6 kmh 29.17 in987.8 mb 0.00 in0.0 mm 0.00 in0.0 mm 0.00 in0.0 mm
07:05 AM 34.2°F1.2°C 28.0°F-2.2°C 78% 10.6 mph ENE17.1 kmh ENE 19.0 mph30.6 kmh 29.16 in987.5 mb 0.00 in0.0 mm 0.00 in0.0 mm 0.00 in0.0 mm
07:10 AM 34.2°F1.2°C 28.0°F-2.2°C 78% 12.7 mph NE20.4 kmh NE 19.7 mph31.7 kmh 29.17 in987.8 mb 0.00 in0.0 mm 0.00 in0.0 mm 0.00 in0.0 mm
07:15 AM 34.2°F1.2°C 28.0°F-2.2°C 78% 13.0 mph NE20.9 kmh NE 19.7 mph31.7 kmh 29.17 in987.8 mb 0.00 in0.0 mm 0.00 in0.0 mm 0.00 in0.0 mm
07:20 AM 34.2°F1.2°C 27.7°F-2.4°C 77% 12.5 mph NE20.1 kmh NE 18.3 mph29.5 kmh 29.17 in987.8 mb 0.00 in0.0 mm 0.00 in0.0 mm 0.00 in0.0 mm
07:25 AM 34.2°F1.2°C 27.7°F-2.4°C 77% 12.1 mph NE19.5 kmh NE 18.3 mph29.5 kmh 29.17 in987.8 mb 0.00 in0.0 mm 0.00 in0.0 mm 0.00 in0.0 mm
07:30 AM 34.0°F1.1°C 27.2°F-2.7°C 76% 11.2 mph NE18.0 kmh NE 16.8 mph27.0 kmh 29.17 in987.8 mb 0.00 in0.0 mm 0.00 in0.0 mm 0.00 in0.0 mm
07:35 AM 33.8°F1.0°C 27.0°F-2.8°C 76% 10.0 mph NE16.1 kmh NE 15.9 mph25.6 kmh 29.18 in988.1 mb 0.00 in0.0 mm 0.00 in0.0 mm 0.00 in0.0 mm
07:40 AM 33.8°F1.0°C 27.0°F-2.8°C 76% 9.8 mph NE15.8 kmh NE 14.5 mph23.3 kmh 29.18 in988.1 mb 0.00 in0.0 mm 0.00 in0.0 mm 0.00 in0.0 mm
07:45 AM 33.8°F1.0°C 27.0°F-2.8°C 76% 8.9 mph NE14.3 kmh NE 13.6 mph21.9 kmh 29.18 in988.1 mb 0.00 in0.0 mm 0.00 in0.0 mm 0.00 in0.0 mm
07:50 AM 33.8°F1.0°C 27.0°F-2.8°C 76% 7.8 mph NE12.6 kmh NE 13.0 mph20.9 kmh 29.18 in988.1 mb 0.00 in0.0 mm 0.00 in0.0 mm 0.00 in0.0 mm
07:55 AM 34.0°F1.1°C 27.2°F-2.7°C 76% 8.1 mph NE13.0 kmh NE 13.6 mph21.9 kmh 29.18 in988.1 mb 0.00 in0.0 mm 0.00 in0.0 mm 0.00 in0.0 mm
08:00 AM 34.2°F1.2°C 27.4°F-2.6°C 76% 8.2 mph NE13.2 kmh NE 13.6 mph21.9 kmh 29.19 in988.5 mb 0.00 in0.0 mm 0.00 in0.0 mm 0.00 in0.0 mm
08:05 AM 34.2°F1.2°C 27.4°F-2.6°C 76% 8.5 mph NE13.7 kmh NE 13.6 mph21.9 kmh 29.19 in988.5 mb 0.00 in0.0 mm 0.00 in0.0 mm 0.00 in0.0 mm
08:10 AM 34.2°F1.2°C 27.4°F-2.6°C 76% 8.2 mph NE13.2 kmh NE 13.0 mph20.9 kmh 29.19 in988.5 mb 0.00 in0.0 mm 0.00 in0.0 mm 0.00 in0.0 mm
08:15 AM 34.2°F1.2°C 27.4°F-2.6°C 76% 7.3 mph NE11.7 kmh NE 13.0 mph20.9 kmh 29.19 in988.5 mb 0.00 in0.0 mm 0.00 in0.0 mm 0.00 in0.0 mm
08:20 AM 34.2°F1.2°C 27.4°F-2.6°C 76% 6.4 mph NE10.3 kmh NE 11.4 mph18.3 kmh 29.19 in988.5 mb 0.00 in0.0 mm 0.00 in0.0 mm 0.00 in0.0 mm
08:25 AM 34.2°F1.2°C 27.4°F-2.6°C 76% 5.7 mph NE9.2 kmh NE 9.8 mph15.8 kmh 29.19 in988.5 mb 0.00 in0.0 mm 0.00 in0.0 mm 0.00 in0.0 mm
08:30 AM 34.3°F1.3°C 27.6°F-2.4°C 76% 6.1 mph NE9.8 kmh NE 9.2 mph14.8 kmh 29.19 in988.5 mb 0.00 in0.0 mm 0.00 in0.0 mm 0.00 in0.0 mm
08:35 AM 34.5°F1.4°C 27.7°F-2.4°C 76% 6.8 mph NE10.9 kmh NE 12.1 mph19.5 kmh 29.19 in988.5 mb 0.00 in0.0 mm 0.00 in0.0 mm 0.00 in0.0 mm
08:40 AM 34.5°F1.4°C 27.7°F-2.4°C 76% 6.9 mph NE11.1 kmh NE 12.1 mph19.5 kmh 29.19 in988.5 mb 0.00 in0.0 mm 0.00 in0.0 mm 0.00 in0.0 mm
08:45 AM 34.5°F1.4°C 27.7°F-2.4°C 76% 7.0 mph NE11.3 kmh NE 12.1 mph19.5 kmh 29.19 in988.5 mb 0.00 in0.0 mm 0.00 in0.0 mm 0.00 in0.0 mm
08:50 AM 34.7°F1.5°C 27.9°F-2.3°C 76% 6.8 mph NE10.9 kmh NE 10.7 mph17.2 kmh 29.20 in988.8 mb 0.00 in0.0 mm 0.00 in0.0 mm 0.00 in0.0 mm
08:55 AM 34.7°F1.5°C 27.9°F-2.3°C 76% 6.2 mph NE10.0 kmh NE 9.8 mph15.8 kmh 29.20 in988.8 mb 0.00 in0.0 mm 0.00 in0.0 mm 0.00 in0.0 mm
09:00 AM 34.7°F1.5°C 27.9°F-2.3°C 76% 5.5 mph NE8.9 kmh NE 8.3 mph13.4 kmh 29.20 in988.8 mb 0.00 in0.0 mm 0.00 in0.0 mm 0.00 in0.0 mm
09:05 AM 34.7°F1.5°C 27.9°F-2.3°C 76% 5.8 mph NE9.3 kmh NE 8.3 mph13.4 kmh 29.20 in988.8 mb 0.00 in0.0 mm 0.00 in0.0 mm 0.00 in0.0 mm
09:10 AM 34.7°F1.5°C 27.9°F-2.3°C 76% 6.5 mph NE10.5 kmh NE 10.7 mph17.2 kmh 29.21 in989.2 mb 0.00 in0.0 mm 0.00 in0.0 mm 0.00 in0.0 mm
09:15 AM 34.9°F1.6°C 28.1°F-2.2°C 76% 7.7 mph NE12.4 kmh NE 14.5 mph23.3 kmh 29.20 in988.8 mb 0.00 in0.0 mm 0.00 in0.0 mm 0.00 in0.0 mm
09:20 AM 34.9°F1.6°C 28.1°F-2.2°C 76% 8.2 mph NE13.2 kmh NE 14.5 mph23.3 kmh 29.21 in989.2 mb 0.00 in0.0 mm 0.00 in0.0 mm 0.00 in0.0 mm
09:25 AM 35.1°F1.7°C 28.3°F-2.1°C 76% 7.0 mph NE11.3 kmh NE 12.1 mph19.5 kmh 29.21 in989.2 mb 0.00 in0.0 mm 0.00 in0.0 mm 0.00 in0.0 mm
09:30 AM 35.2°F1.8°C 28.8°F-1.8°C 77% 6.8 mph NE10.9 kmh NE 13.0 mph20.9 kmh 29.20 in988.8 mb 0.00 in0.0 mm 0.00 in0.0 mm 0.00 in0.0 mm
09:35 AM 35.4°F1.9°C 28.9°F-1.7°C 77% 7.6 mph NE12.2 kmh NE 13.0 mph20.9 kmh 29.20 in988.8 mb 0.00 in0.0 mm 0.00 in0.0 mm 0.00 in0.0 mm
09:40 AM 35.8°F2.1°C 28.6°F-1.9°C 75% 8.2 mph NE13.2 kmh NE 13.6 mph21.9 kmh 29.20 in988.8 mb 0.00 in0.0 mm 0.00 in0.0 mm 0.00 in0.0 mm
09:45 AM 36.0°F2.2°C 28.8°F-1.8°C 75% 9.0 mph NE14.5 kmh NE 13.6 mph21.9 kmh 29.21 in989.2 mb 0.00 in0.0 mm 0.00 in0.0 mm 0.00 in0.0 mm
09:50 AM 36.1°F2.3°C 29.0°F-1.7°C 75% 8.5 mph NE13.7 kmh NE 13.6 mph21.9 kmh 29.20 in988.8 mb 0.00 in0.0 mm 0.00 in0.0 mm 0.00 in0.0 mm
09:55 AM 36.3°F2.4°C 29.2°F-1.6°C 75% 6.9 mph NE11.1 kmh NE 11.4 mph18.3 kmh 29.20 in988.8 mb 0.00 in0.0 mm 0.00 in0.0 mm 0.00 in0.0 mm
10:00 AM 36.3°F2.4°C 28.8°F-1.8°C 74% 6.3 mph NE10.1 kmh NE 9.8 mph15.8 kmh 29.21 in989.2 mb 0.00 in0.0 mm 0.00 in0.0 mm 0.00 in0.0 mm
10:05 AM 36.7°F2.6°C 29.2°F-1.6°C 74% 6.1 mph NE9.8 kmh NE 9.2 mph14.8 kmh 29.21 in989.2 mb 0.00 in0.0 mm 0.00 in0.0 mm 0.00 in0.0 mm
10:10 AM 36.9°F2.7°C 29.3°F-1.5°C 74% 6.2 mph NE10.0 kmh NE 12.1 mph19.5 kmh 29.21 in989.2 mb 0.00 in0.0 mm 0.00 in0.0 mm 0.00 in0.0 mm
10:15 AM 37.0°F2.8°C 29.5°F-1.4°C 74% 6.9 mph NE11.1 kmh NE 12.1 mph19.5 kmh 29.21 in989.2 mb 0.00 in0.0 mm 0.00 in0.0 mm 0.00 in0.0 mm
10:20 AM 37.2°F2.9°C 29.7°F-1.3°C 74% 6.6 mph NE10.6 kmh NE 10.7 mph17.2 kmh 29.21 in989.2 mb 0.00 in0.0 mm 0.00 in0.0 mm 0.00 in0.0 mm
10:25 AM 37.4°F3.0°C 31.2°F-0.4°C 78% 5.5 mph NE8.9 kmh NE 8.3 mph13.4 kmh 29.21 in989.2 mb 0.00 in0.0 mm 0.00 in0.0 mm 0.00 in0.0 mm
10:30 AM 37.6°F3.1°C 31.3°F-0.4°C 78% 5.1 mph NE8.2 kmh NE 11.4 mph18.3 kmh 29.22 in989.5 mb 0.00 in0.0 mm 0.00 in0.0 mm 0.00 in0.0 mm
10:35 AM 37.6°F3.1°C 31.0°F-0.6°C 77% 5.5 mph NE8.9 kmh NE 11.4 mph18.3 kmh 29.22 in989.5 mb 0.00 in0.0 mm 0.00 in0.0 mm 0.00 in0.0 mm
10:40 AM 37.6°F3.1°C 31.0°F-0.6°C 77% 5.6 mph NE9.0 kmh NE 9.8 mph15.8 kmh 29.22 in989.5 mb 0.00 in0.0 mm 0.00 in0.0 mm 0.00 in0.0 mm
10:45 AM 37.9°F3.3°C 31.4°F-0.3°C 77% 5.3 mph NE8.5 kmh NE 9.2 mph14.8 kmh 29.23 in989.8 mb 0.00 in0.0 mm 0.00 in0.0 mm 0.00 in0.0 mm
10:50 AM 38.3°F3.5°C 31.7°F-0.2°C 77% 5.5 mph NE8.9 kmh NE 9.2 mph14.8 kmh 29.23 in989.8 mb 0.00 in0.0 mm 0.00 in0.0 mm 0.00 in0.0 mm
10:55 AM 38.7°F3.7°C 31.7°F-0.2°C 76% 5.5 mph NE8.9 kmh NE 9.2 mph14.8 kmh 29.23 in989.8 mb 0.00 in0.0 mm 0.00 in0.0 mm 0.00 in0.0 mm
11:00 AM 38.8°F3.8°C 31.9°F-0.1°C 76% 5.1 mph NE8.2 kmh NE 8.3 mph13.4 kmh 29.23 in989.8 mb 0.00 in0.0 mm 0.00 in0.0 mm 0.00 in0.0 mm
11:05 AM 39.0°F3.9°C 32.1°F0.1°C 76% 5.2 mph NE8.4 kmh NE 8.3 mph13.4 kmh 29.23 in989.8 mb 0.00 in0.0 mm 0.00 in0.0 mm 0.00 in0.0 mm
11:10 AM 39.2°F4.0°C 31.9°F-0.1°C 75% 5.5 mph NE8.9 kmh NE 9.2 mph14.8 kmh 29.23 in989.8 mb 0.00 in0.0 mm 0.00 in0.0 mm 0.00 in0.0 mm
11:15 AM 39.7°F4.3°C 32.5°F0.3°C 75% 5.2 mph NE8.4 kmh NE 9.2 mph14.8 kmh 29.23 in989.8 mb 0.00 in0.0 mm 0.00 in0.0 mm 0.00 in0.0 mm
11:20 AM 39.9°F4.4°C 32.3°F0.2°C 74% 5.2 mph NE8.4 kmh NE 9.2 mph14.8 kmh 29.23 in989.8 mb 0.00 in0.0 mm 0.00 in0.0 mm 0.00 in0.0 mm
11:25 AM 40.5°F4.7°C 32.8°F0.4°C 74% 5.5 mph NE8.9 kmh NE 9.2 mph14.8 kmh 29.23 in989.8 mb 0.00 in0.0 mm 0.00 in0.0 mm 0.00 in0.0 mm
11:30 AM 40.6°F4.8°C 33.0°F0.6°C 74% 5.6 mph NE9.0 kmh NE 9.2 mph14.8 kmh 29.23 in989.8 mb 0.00 in0.0 mm 0.00 in0.0 mm 0.00 in0.0 mm
11:35 AM 40.6°F4.8°C 32.7°F0.4°C 73% 5.8 mph NE9.3 kmh NE 10.7 mph17.2 kmh 29.23 in989.8 mb 0.00 in0.0 mm 0.00 in0.0 mm 0.00 in0.0 mm
11:40 AM 40.8°F4.9°C 32.5°F0.3°C 72% 6.2 mph NE10.0 kmh NE 10.7 mph17.2 kmh 29.23 in989.8 mb 0.00 in0.0 mm 0.00 in0.0 mm 0.00 in0.0 mm
11:45 AM 41.0°F5.0°C 32.0°F0.0°C 70% 6.4 mph NE10.3 kmh NE 9.8 mph15.8 kmh 29.23 in989.8 mb 0.00 in0.0 mm 0.00 in0.0 mm 0.00 in0.0 mm
11:50 AM 40.8°F4.9°C 31.8°F-0.1°C 70% 6.7 mph NE10.8 kmh NE 9.8 mph15.8 kmh 29.23 in989.8 mb 0.00 in0.0 mm 0.00 in0.0 mm 0.00 in0.0 mm
11:55 AM 40.3°F4.6°C 31.3°F-0.4°C 70% 7.0 mph NE11.3 kmh NE 9.8 mph15.8 kmh 29.23 in989.8 mb 0.00 in0.0 mm 0.00 in0.0 mm 0.00 in0.0 mm
12:00 PM 40.3°F4.6°C 31.3°F-0.4°C 70% 6.4 mph NE10.3 kmh NE 9.8 mph15.8 kmh 29.23 in989.8 mb 0.00 in0.0 mm 0.00 in0.0 mm 0.00 in0.0 mm
12:05 PM 40.1°F4.5°C 31.1°F-0.5°C 70% 6.1 mph NE9.8 kmh NE 9.8 mph15.8 kmh 29.23 in989.8 mb 0.00 in0.0 mm 0.00 in0.0 mm 0.00 in0.0 mm
12:10 PM 39.7°F4.3°C 30.8°F-0.7°C 70% 5.8 mph NE9.3 kmh NE 9.8 mph15.8 kmh 29.24 in990.2 mb 0.00 in0.0 mm 0.00 in0.0 mm 0.00 in0.0 mm
12:15 PM 39.4°F4.1°C 30.4°F-0.9°C 70% 6.1 mph NE9.8 kmh NE 9.2 mph14.8 kmh 29.23 in989.8 mb 0.00 in0.0 mm 0.00 in0.0 mm 0.00 in0.0 mm
12:20 PM 39.0°F3.9°C 30.4°F-0.9°C 71% 6.5 mph NE10.5 kmh NE 9.8 mph15.8 kmh 29.24 in990.2 mb 0.00 in0.0 mm 0.00 in0.0 mm 0.00 in0.0 mm
12:25 PM 39.0°F3.9°C 30.4°F-0.9°C 71% 6.6 mph NE10.6 kmh NE 9.8 mph15.8 kmh 29.23 in989.8 mb 0.00 in0.0 mm 0.00 in0.0 mm 0.00 in0.0 mm
12:30 PM 39.0°F3.9°C 30.4°F-0.9°C 71% 6.4 mph NE10.3 kmh NE 9.8 mph15.8 kmh 29.24 in990.2 mb 0.00 in0.0 mm 0.00 in0.0 mm 0.00 in0.0 mm
12:35 PM 39.2°F4.0°C 30.2°F-1.0°C 70% 5.7 mph NE9.2 kmh NE 9.2 mph14.8 kmh 29.24 in990.2 mb 0.00 in0.0 mm 0.00 in0.0 mm 0.00 in0.0 mm
12:40 PM 39.2°F4.0°C 30.2°F-1.0°C 70% 5.1 mph NE8.2 kmh NE 8.3 mph13.4 kmh 29.24 in990.2 mb 0.00 in0.0 mm 0.00 in0.0 mm 0.00 in0.0 mm
12:45 PM 39.4°F4.1°C 30.4°F-0.9°C 70% 5.4 mph NE8.7 kmh NE 9.2 mph14.8 kmh 29.24 in990.2 mb 0.00 in0.0 mm 0.00 in0.0 mm 0.00 in0.0 mm
12:50 PM 39.4°F4.1°C 30.4°F-0.9°C 70% 6.0 mph NE9.7 kmh NE 9.2 mph14.8 kmh 29.24 in990.2 mb 0.00 in0.0 mm 0.00 in0.0 mm 0.00 in0.0 mm
12:55 PM 39.4°F4.1°C 30.4°F-0.9°C 70% 6.2 mph NE10.0 kmh NE 9.2 mph14.8 kmh 29.24 in990.2 mb 0.00 in0.0 mm 0.00 in0.0 mm 0.00 in0.0 mm
01:00 PM 39.4°F4.1°C 30.4°F-0.9°C 70% 6.4 mph NE10.3 kmh NE 10.7 mph17.2 kmh 29.24 in990.2 mb 0.00 in0.0 mm 0.00 in0.0 mm 0.00 in0.0 mm
01:05 PM 39.6°F4.2°C 30.6°F-0.8°C 70% 6.4 mph NE10.3 kmh NE 10.7 mph17.2 kmh 29.24 in990.2 mb 0.00 in0.0 mm 0.00 in0.0 mm 0.00 in0.0 mm
01:10 PM 39.7°F4.3°C 30.8°F-0.7°C 70% 7.3 mph NE11.7 kmh NE 11.4 mph18.3 kmh 29.24 in990.2 mb 0.00 in0.0 mm 0.00 in0.0 mm 0.00 in0.0 mm
01:15 PM 39.6°F4.2°C 30.6°F-0.8°C 70% 8.0 mph NE12.9 kmh NE 11.4 mph18.3 kmh 29.24 in990.2 mb 0.00 in0.0 mm 0.00 in0.0 mm 0.00 in0.0 mm
01:20 PM 39.4°F4.1°C 30.4°F-0.9°C 70% 7.5 mph NE12.1 kmh NE 11.4 mph18.3 kmh 29.24 in990.2 mb 0.00 in0.0 mm 0.00 in0.0 mm 0.00 in0.0 mm
01:25 PM 39.4°F4.1°C 30.4°F-0.9°C 70% 6.9 mph NE11.1 kmh NE 9.8 mph15.8 kmh 29.24 in990.2 mb 0.00 in0.0 mm 0.00 in0.0 mm 0.00 in0.0 mm
01:30 PM 39.4°F4.1°C 30.4°F-0.9°C 70% 6.1 mph NE9.8 kmh NE 11.4 mph18.3 kmh 29.24 in990.2 mb 0.00 in0.0 mm 0.00 in0.0 mm 0.00 in0.0 mm
01:35 PM 39.7°F4.3°C 30.8°F-0.7°C 70% 6.6 mph NE10.6 kmh NE 13.0 mph20.9 kmh 29.24 in990.2 mb 0.00 in0.0 mm 0.00 in0.0 mm 0.00 in0.0 mm
01:40 PM 39.9°F4.4°C 30.9°F-0.6°C 70% 7.2 mph NE11.6 kmh NE 13.0 mph20.9 kmh 29.24 in990.2 mb 0.00 in0.0 mm 0.00 in0.0 mm 0.00 in0.0 mm
01:45 PM 39.9°F4.4°C 30.9°F-0.6°C 70% 7.8 mph NE12.6 kmh NE 11.4 mph18.3 kmh 29.24 in990.2 mb 0.00 in0.0 mm 0.00 in0.0 mm 0.00 in0.0 mm
01:50 PM 40.3°F4.6°C 31.3°F-0.4°C 70% 8.6 mph NE13.8 kmh NE 11.4 mph18.3 kmh 29.24 in990.2 mb 0.00 in0.0 mm 0.00 in0.0 mm 0.00 in0.0 mm
01:55 PM 40.5°F4.7°C 31.4°F-0.3°C 70% 8.4 mph NE13.5 kmh NE 12.1 mph19.5 kmh 29.24 in990.2 mb 0.00 in0.0 mm 0.00 in0.0 mm 0.00 in0.0 mm
02:00 PM 40.5°F4.7°C 31.1°F-0.5°C 69% 8.1 mph NE13.0 kmh NE 12.1 mph19.5 kmh 29.24 in990.2 mb 0.00 in0.0 mm 0.00 in0.0 mm 0.00 in0.0 mm
02:05 PM 40.8°F4.9°C 31.8°F-0.1°C 70% 7.5 mph NE12.1 kmh NE 12.1 mph19.5 kmh 29.24 in990.2 mb 0.00 in0.0 mm 0.00 in0.0 mm 0.00 in0.0 mm
02:10 PM 41.2°F5.1°C 31.8°F-0.1°C 69% 7.1 mph NE11.4 kmh NE 13.0 mph20.9 kmh 29.24 in990.2 mb 0.00 in0.0 mm 0.00 in0.0 mm 0.00 in0.0 mm
02:15 PM 41.4°F5.2°C 31.9°F-0.1°C 69% 7.9 mph NE12.7 kmh NE 13.0 mph20.9 kmh 29.24 in990.2 mb 0.00 in0.0 mm 0.00 in0.0 mm 0.00 in0.0 mm
02:20 PM 41.5°F5.3°C 31.8°F-0.1°C 68% 8.2 mph NE13.2 kmh NE 11.4 mph18.3 kmh 29.24 in990.2 mb 0.00 in0.0 mm 0.00 in0.0 mm 0.00 in0.0 mm
02:25 PM 41.5°F5.3°C 31.8°F-0.1°C 68% 7.5 mph NE12.1 kmh NE 14.5 mph23.3 kmh 29.24 in990.2 mb 0.00 in0.0 mm 0.00 in0.0 mm 0.00 in0.0 mm
02:30 PM 41.4°F5.2°C 31.6°F-0.2°C 68% 7.2 mph NNE11.6 kmh NNE 14.5 mph23.3 kmh 29.24 in990.2 mb 0.00 in0.0 mm 0.00 in0.0 mm 0.00 in0.0 mm
02:35 PM 41.4°F5.2°C 31.6°F-0.2°C 68% 7.2 mph N11.6 kmh N 9.8 mph15.8 kmh 29.24 in990.2 mb 0.00 in0.0 mm 0.00 in0.0 mm 0.00 in0.0 mm
02:40 PM 41.2°F5.1°C 31.4°F-0.3°C 68% 7.2 mph NNE11.6 kmh NNE 10.7 mph17.2 kmh 29.25 in990.5 mb 0.00 in0.0 mm 0.00 in0.0 mm 0.00 in0.0 mm
02:45 PM 41.2°F5.1°C 31.4°F-0.3°C 68% 7.3 mph NE11.7 kmh NE 10.7 mph17.2 kmh 29.25 in990.5 mb 0.00 in0.0 mm 0.00 in0.0 mm 0.00 in0.0 mm
02:50 PM 41.0°F5.0°C 31.6°F-0.2°C 69% 7.2 mph NE11.6 kmh NE 10.7 mph17.2 kmh 29.26 in990.9 mb 0.00 in0.0 mm 0.00 in0.0 mm 0.00 in0.0 mm
02:55 PM 41.0°F5.0°C 31.6°F-0.2°C 69% 6.5 mph NE10.5 kmh NE 9.8 mph15.8 kmh 29.25 in990.5 mb 0.00 in0.0 mm 0.00 in0.0 mm 0.00 in0.0 mm
03:00 PM 40.8°F4.9°C 31.8°F-0.1°C 70% 6.7 mph NE10.8 kmh NE 9.8 mph15.8 kmh 29.26 in990.9 mb 0.00 in0.0 mm 0.00 in0.0 mm 0.00 in0.0 mm
03:05 PM 40.5°F4.7°C 31.4°F-0.3°C 70% 6.8 mph NE10.9 kmh NE 9.8 mph15.8 kmh 29.26 in990.9 mb 0.00 in0.0 mm 0.00 in0.0 mm 0.00 in0.0 mm
03:10 PM 40.3°F4.6°C 31.3°F-0.4°C 70% 7.0 mph NE11.3 kmh NE 9.8 mph15.8 kmh 29.27 in991.2 mb 0.00 in0.0 mm 0.00 in0.0 mm 0.00 in0.0 mm
03:15 PM 40.1°F4.5°C 31.1°F-0.5°C 70% 7.0 mph NE11.3 kmh NE 10.7 mph17.2 kmh 29.27 in991.2 mb 0.00 in0.0 mm 0.00 in0.0 mm 0.00 in0.0 mm
03:20 PM 40.1°F4.5°C 31.1°F-0.5°C 70% 6.1 mph NE9.8 kmh NE 10.7 mph17.2 kmh 29.27 in991.2 mb 0.00 in0.0 mm 0.00 in0.0 mm 0.00 in0.0 mm
03:25 PM 40.1°F4.5°C 31.1°F-0.5°C 70% 6.3 mph NE10.1 kmh NE 9.8 mph15.8 kmh 29.27 in991.2 mb 0.00 in0.0 mm 0.00 in0.0 mm 0.00 in0.0 mm
03:30 PM 39.7°F4.3°C 31.1°F-0.5°C 71% 7.1 mph NE11.4 kmh NE 10.7 mph17.2 kmh 29.27 in991.2 mb 0.00 in0.0 mm 0.00 in0.0 mm 0.00 in0.0 mm
03:35 PM 39.4°F4.1°C 30.8°F-0.7°C 71% 7.0 mph NE11.3 kmh NE 11.4 mph18.3 kmh 29.27 in991.2 mb 0.00 in0.0 mm 0.00 in0.0 mm 0.00 in0.0 mm
03:40 PM 39.2°F4.0°C 30.9°F-0.6°C 72% 5.9 mph NE9.5 kmh NE 11.4 mph18.3 kmh 29.28 in991.5 mb 0.00 in0.0 mm 0.00 in0.0 mm 0.00 in0.0 mm
03:45 PM 39.0°F3.9°C 31.1°F-0.5°C 73% 5.6 mph NNE9.0 kmh NNE 9.2 mph14.8 kmh 29.28 in991.5 mb 0.00 in0.0 mm 0.00 in0.0 mm 0.00 in0.0 mm
03:50 PM 38.8°F3.8°C 31.3°F-0.4°C 74% 5.6 mph NNE9.0 kmh NNE 9.2 mph14.8 kmh 29.27 in991.2 mb 0.00 in0.0 mm 0.00 in0.0 mm 0.00 in0.0 mm
03:55 PM 38.7°F3.7°C 31.1°F-0.5°C 74% 5.7 mph N9.2 kmh N 9.8 mph15.8 kmh 29.28 in991.5 mb 0.00 in0.0 mm 0.00 in0.0 mm 0.00 in0.0 mm
04:00 PM 38.5°F3.6°C 31.2°F-0.4°C 75% 5.5 mph N8.9 kmh N 9.8 mph15.8 kmh 29.28 in991.5 mb 0.00 in0.0 mm 0.00 in0.0 mm 0.00 in0.0 mm
04:05 PM 38.1°F3.4°C 30.9°F-0.6°C 75% 4.9 mph N7.9 kmh N 9.2 mph14.8 kmh 29.28 in991.5 mb 0.00 in0.0 mm 0.00 in0.0 mm 0.00 in0.0 mm
04:10 PM 37.9°F3.3°C 30.7°F-0.7°C 75% 4.9 mph N7.9 kmh N 9.2 mph14.8 kmh 29.28 in991.5 mb 0.00 in0.0 mm 0.00 in0.0 mm 0.00 in0.0 mm
04:15 PM 37.8°F3.2°C 30.5°F-0.8°C 75% 5.7 mph N9.2 kmh N 9.8 mph15.8 kmh 29.28 in991.5 mb 0.00 in0.0 mm 0.00 in0.0 mm 0.00 in0.0 mm
04:20 PM 37.6°F3.1°C 30.7°F-0.7°C 76% 7.2 mph N11.6 kmh N 10.7 mph17.2 kmh 29.28 in991.5 mb 0.00 in0.0 mm 0.00 in0.0 mm 0.00 in0.0 mm
04:25 PM 37.0°F2.8°C 28.8°F-1.8°C 72% 7.3 mph N11.7 kmh N 10.7 mph17.2 kmh 29.29 in991.9 mb 0.00 in0.0 mm 0.00 in0.0 mm 0.00 in0.0 mm
04:30 PM 36.7°F2.6°C 28.5°F-1.9°C 72% 5.7 mph N9.2 kmh N 9.8 mph15.8 kmh 29.29 in991.9 mb 0.00 in0.0 mm 0.00 in0.0 mm 0.00 in0.0 mm
04:35 PM 36.1°F2.3°C 28.0°F-2.2°C 72% 4.6 mph N7.4 kmh N 8.3 mph13.4 kmh 29.29 in991.9 mb 0.00 in0.0 mm 0.00 in0.0 mm 0.00 in0.0 mm
04:40 PM 35.8°F2.1°C 27.6°F-2.4°C 72% 4.4 mph N7.1 kmh N 6.9 mph11.1 kmh 29.29 in991.9 mb 0.00 in0.0 mm 0.00 in0.0 mm 0.00 in0.0 mm
04:45 PM 35.4°F1.9°C 27.6°F-2.4°C 73% 4.4 mph N7.1 kmh N 6.9 mph11.1 kmh 29.29 in991.9 mb 0.00 in0.0 mm 0.00 in0.0 mm 0.00 in0.0 mm
04:50 PM 35.4°F1.9°C 28.0°F-2.2°C 74% 5.6 mph N9.0 kmh N 13.0 mph20.9 kmh 29.29 in991.9 mb 0.00 in0.0 mm 0.00 in0.0 mm 0.00 in0.0 mm
04:55 PM 35.4°F1.9°C 28.0°F-2.2°C 74% 7.2 mph N11.6 kmh N 13.0 mph20.9 kmh 29.29 in991.9 mb 0.00 in0.0 mm 0.00 in0.0 mm 0.00 in0.0 mm
05:00 PM 35.4°F1.9°C 28.3°F-2.1°C 75% 8.0 mph N12.9 kmh N 12.1 mph19.5 kmh 29.29 in991.9 mb 0.00 in0.0 mm 0.00 in0.0 mm 0.00 in0.0 mm
05:05 PM 35.4°F1.9°C 28.3°F-2.1°C 75% 8.2 mph N13.2 kmh N 12.1 mph19.5 kmh 29.29 in991.9 mb 0.00 in0.0 mm 0.00 in0.0 mm 0.00 in0.0 mm
05:10 PM 35.4°F1.9°C 28.3°F-2.1°C 75% 7.6 mph N12.2 kmh N 12.1 mph19.5 kmh 29.30 in992.2 mb 0.00 in0.0 mm 0.00 in0.0 mm 0.00 in0.0 mm
05:15 PM 35.2°F1.8°C 28.4°F-2.0°C 76% 7.0 mph N11.3 kmh N 12.1 mph19.5 kmh 29.30 in992.2 mb 0.00 in0.0 mm 0.00 in0.0 mm 0.00 in0.0 mm
05:20 PM 35.1°F1.7°C 28.3°F-2.1°C 76% 7.2 mph N11.6 kmh N 11.4 mph18.3 kmh 29.30 in992.2 mb 0.00 in0.0 mm 0.00 in0.0 mm 0.00 in0.0 mm
05:25 PM 34.9°F1.6°C 28.1°F-2.2°C 76% 7.4 mph N11.9 kmh N 11.4 mph18.3 kmh 29.30 in992.2 mb 0.00 in0.0 mm 0.00 in0.0 mm 0.00 in0.0 mm
05:30 PM 34.7°F1.5°C 28.2°F-2.1°C 77% 7.5 mph N12.1 kmh N 13.0 mph20.9 kmh 29.31 in992.6 mb 0.00 in0.0 mm 0.00 in0.0 mm 0.00 in0.0 mm
05:35 PM 34.9°F1.6°C 28.4°F-2.0°C 77% 7.9 mph N12.7 kmh N 16.8 mph27.0 kmh 29.31 in992.6 mb 0.00 in0.0 mm 0.00 in0.0 mm 0.00 in0.0 mm
05:40 PM 34.9°F1.6°C 28.4°F-2.0°C 77% 9.1 mph NNE14.6 kmh NNE 16.8 mph27.0 kmh 29.31 in992.6 mb 0.00 in0.0 mm 0.00 in0.0 mm 0.00 in0.0 mm
05:45 PM 34.9°F1.6°C 28.7°F-1.8°C 78% 10.3 mph NNE16.6 kmh NNE 19.0 mph30.6 kmh 29.31 in992.6 mb 0.00 in0.0 mm 0.00 in0.0 mm 0.00 in0.0 mm
05:50 PM 34.7°F1.5°C 28.5°F-1.9°C 78% 11.4 mph NNE18.3 kmh NNE 24.4 mph39.3 kmh 29.31 in992.6 mb 0.00 in0.0 mm 0.00 in0.0 mm 0.00 in0.0 mm
05:55 PM 34.5°F1.4°C 28.4°F-2.0°C 78% 11.9 mph N19.2 kmh N 24.4 mph39.3 kmh 29.32 in992.9 mb 0.00 in0.0 mm 0.00 in0.0 mm 0.00 in0.0 mm
06:00 PM 34.3°F1.3°C 28.2°F-2.1°C 78% 11.4 mph N18.3 kmh N 19.0 mph30.6 kmh 29.32 in992.9 mb 0.00 in0.0 mm 0.00 in0.0 mm 0.00 in0.0 mm
06:05 PM 34.2°F1.2°C 28.3°F-2.1°C 79% 9.8 mph N15.8 kmh N 16.8 mph27.0 kmh 29.32 in992.9 mb 0.01 in0.3 mm 0.12 in3.0 mm 0.01 in0.3 mm
06:10 PM 34.2°F1.2°C 28.3°F-2.1°C 79% 6.7 mph N10.8 kmh N 13.6 mph21.9 kmh 29.32 in992.9 mb 0.01 in0.3 mm 0.00 in0.0 mm 0.01 in0.3 mm
06:15 PM 33.8°F1.0°C 28.0°F-2.2°C 79% 4.8 mph N7.7 kmh N 10.7 mph17.2 kmh 29.32 in992.9 mb 0.01 in0.3 mm 0.00 in0.0 mm 0.01 in0.3 mm
06:20 PM 33.6°F0.9°C 28.1°F-2.2°C 80% 4.6 mph N7.4 kmh N 9.2 mph14.8 kmh 29.32 in992.9 mb 0.01 in0.3 mm 0.00 in0.0 mm 0.01 in0.3 mm
06:25 PM 33.6°F0.9°C 28.4°F-2.0°C 81% 4.4 mph NW7.1 kmh NW 9.2 mph14.8 kmh 29.32 in992.9 mb 0.01 in0.3 mm 0.00 in0.0 mm 0.01 in0.3 mm
06:30 PM 33.3°F0.7°C 28.1°F-2.2°C 81% 4.1 mph NW6.6 kmh NW 9.2 mph14.8 kmh 29.32 in992.9 mb 0.01 in0.3 mm 0.00 in0.0 mm 0.01 in0.3 mm
06:35 PM 33.1°F0.6°C 27.9°F-2.3°C 81% 5.3 mph NNW8.5 kmh NNW 11.4 mph18.3 kmh 29.32 in992.9 mb 0.01 in0.3 mm 0.00 in0.0 mm 0.01 in0.3 mm
06:40 PM 33.1°F0.6°C 27.9°F-2.3°C 81% 6.1 mph N9.8 kmh N 11.4 mph18.3 kmh 29.32 in992.9 mb 0.01 in0.3 mm 0.00 in0.0 mm 0.01 in0.3 mm
06:45 PM 32.9°F0.5°C 27.7°F-2.4°C 81% 5.6 mph N9.0 kmh N 9.2 mph14.8 kmh 29.33 in993.2 mb 0.01 in0.3 mm 0.00 in0.0 mm 0.01 in0.3 mm
06:50 PM 32.9°F0.5°C 27.7°F-2.4°C 81% 5.4 mph N8.7 kmh N 8.3 mph13.4 kmh 29.33 in993.2 mb 0.01 in0.3 mm 0.00 in0.0 mm 0.01 in0.3 mm
06:55 PM 32.5°F0.3°C 27.7°F-2.4°C 82% 5.0 mph N8.0 kmh N 7.6 mph12.2 kmh 29.34 in993.6 mb 0.01 in0.3 mm 0.00 in0.0 mm 0.01 in0.3 mm
07:00 PM 32.5°F0.3°C 27.7°F-2.4°C 82% 4.7 mph N7.6 kmh N 7.6 mph12.2 kmh 29.34 in993.6 mb 0.01 in0.3 mm 0.00 in0.0 mm 0.01 in0.3 mm
07:05 PM 32.4°F0.2°C 27.5°F-2.5°C 82% 4.8 mph N7.7 kmh N 8.3 mph13.4 kmh 29.34 in993.6 mb 0.00 in0.0 mm 0.00 in0.0 mm 0.01 in0.3 mm
07:10 PM 32.4°F0.2°C 27.5°F-2.5°C 82% 5.3 mph N8.5 kmh N 9.2 mph14.8 kmh 29.34 in993.6 mb 0.00 in0.0 mm 0.00 in0.0 mm 0.01 in0.3 mm
07:15 PM 32.4°F0.2°C 27.5°F-2.5°C 82% 5.6 mph N9.0 kmh N 9.2 mph14.8 kmh 29.34 in993.6 mb 0.00 in0.0 mm 0.00 in0.0 mm 0.01 in0.3 mm
07:20 PM 32.4°F0.2°C 27.5°F-2.5°C 82% 5.4 mph N8.7 kmh N 7.6 mph12.2 kmh 29.34 in993.6 mb 0.00 in0.0 mm 0.00 in0.0 mm 0.01 in0.3 mm
07:25 PM 32.4°F0.2°C 27.5°F-2.5°C 82% 5.4 mph N8.7 kmh N 6.9 mph11.1 kmh 29.35 in993.9 mb 0.00 in0.0 mm 0.00 in0.0 mm 0.01 in0.3 mm
07:30 PM 32.5°F0.3°C 28.0°F-2.2°C 83% 5.7 mph N9.2 kmh N 9.2 mph14.8 kmh 29.35 in993.9 mb 0.00 in0.0 mm 0.00 in0.0 mm 0.01 in0.3 mm
07:35 PM 32.7°F0.4°C 28.1°F-2.2°C 83% 5.8 mph N9.3 kmh N 9.2 mph14.8 kmh 29.35 in993.9 mb 0.00 in0.0 mm 0.00 in0.0 mm 0.01 in0.3 mm
07:40 PM 32.7°F0.4°C 28.1°F-2.2°C 83% 5.5 mph N8.9 kmh N 9.2 mph14.8 kmh 29.35 in993.9 mb 0.00 in0.0 mm 0.00 in0.0 mm 0.01 in0.3 mm
07:45 PM 32.7°F0.4°C 28.1°F-2.2°C 83% 5.4 mph N8.7 kmh N 7.6 mph12.2 kmh 29.35 in993.9 mb 0.00 in0.0 mm 0.00 in0.0 mm 0.01 in0.3 mm
07:50 PM 32.7°F0.4°C 28.1°F-2.2°C 83% 5.4 mph N8.7 kmh N 7.6 mph12.2 kmh 29.36 in994.2 mb 0.00 in0.0 mm 0.00 in0.0 mm 0.01 in0.3 mm
07:55 PM 32.7°F0.4°C 28.1°F-2.2°C 83% 2.2 mph NW3.5 kmh NW 5.4 mph8.7 kmh 29.35 in993.9 mb 0.00 in0.0 mm 0.00 in0.0 mm 0.01 in0.3 mm
08:00 PM 32.9°F0.5°C 28.3°F-2.1°C 83% 2.0 mph NW3.2 kmh NW 5.4 mph8.7 kmh 29.36 in994.2 mb 0.00 in0.0 mm 0.00 in0.0 mm 0.01 in0.3 mm
08:05 PM 32.9°F0.5°C 28.3°F-2.1°C 83% 1.8 mph NW2.9 kmh NW 5.4 mph8.7 kmh 29.36 in994.2 mb 0.00 in0.0 mm 0.00 in0.0 mm 0.01 in0.3 mm
08:10 PM 32.9°F0.5°C 28.3°F-2.1°C 83% 1.7 mph N2.7 kmh N 3.8 mph6.1 kmh 29.36 in994.2 mb 0.00 in0.0 mm 0.00 in0.0 mm 0.01 in0.3 mm
08:15 PM 32.7°F0.4°C 28.1°F-2.2°C 83% 2.5 mph N4.0 kmh N 6.9 mph11.1 kmh 29.36 in994.2 mb 0.00 in0.0 mm 0.00 in0.0 mm 0.01 in0.3 mm
08:20 PM 32.7°F0.4°C 28.1°F-2.2°C 83% 3.6 mph N5.8 kmh N 6.9 mph11.1 kmh 29.36 in994.2 mb 0.00 in0.0 mm 0.00 in0.0 mm 0.01 in0.3 mm
08:25 PM 32.7°F0.4°C 28.1°F-2.2°C 83% 3.9 mph NNW6.3 kmh NNW 6.9 mph11.1 kmh 29.36 in994.2 mb 0.00 in0.0 mm 0.00 in0.0 mm 0.01 in0.3 mm
08:30 PM 32.4°F0.2°C 27.8°F-2.3°C 83% 3.8 mph NNW6.1 kmh NNW 5.4 mph8.7 kmh 29.36 in994.2 mb 0.00 in0.0 mm 0.00 in0.0 mm 0.01 in0.3 mm
08:35 PM 32.2°F0.1°C 27.6°F-2.4°C 83% 3.3 mph N5.3 kmh N 5.4 mph8.7 kmh 29.37 in994.6 mb 0.00 in0.0 mm 0.00 in0.0 mm 0.01 in0.3 mm
08:40 PM 32.0°F0.0°C 27.4°F-2.6°C 83% 2.9 mph N4.7 kmh N 5.4 mph8.7 kmh 29.37 in994.6 mb 0.00 in0.0 mm 0.00 in0.0 mm 0.01 in0.3 mm
08:45 PM 32.0°F0.0°C 27.7°F-2.4°C 84% 2.9 mph N4.7 kmh N 5.4 mph8.7 kmh 29.37 in994.6 mb 0.00 in0.0 mm 0.00 in0.0 mm 0.01 in0.3 mm
08:50 PM 32.2°F0.1°C 27.9°F-2.3°C 84% 3.4 mph N5.5 kmh N 6.9 mph11.1 kmh 29.38 in994.9 mb 0.00 in0.0 mm 0.00 in0.0 mm 0.01 in0.3 mm
08:55 PM 32.4°F0.2°C 28.1°F-2.2°C 84% 6.2 mph NNE10.0 kmh NNE 13.6 mph21.9 kmh 29.38 in994.9 mb 0.00 in0.0 mm 0.00 in0.0 mm 0.01 in0.3 mm
09:00 PM 32.7°F0.4°C 28.4°F-2.0°C 84% 8.0 mph NE12.9 kmh NE 13.6 mph21.9 kmh 29.38 in994.9 mb 0.00 in0.0 mm 0.00 in0.0 mm 0.01 in0.3 mm
09:05 PM 32.7°F0.4°C 28.4°F-2.0°C 84% 6.5 mph NE10.5 kmh NE 12.1 mph19.5 kmh 29.38 in994.9 mb 0.00 in0.0 mm 0.00 in0.0 mm 0.01 in0.3 mm
09:10 PM 32.9°F0.5°C 28.6°F-1.9°C 84% 4.7 mph N7.6 kmh N 8.3 mph13.4 kmh 29.39 in995.3 mb 0.00 in0.0 mm 0.00 in0.0 mm 0.01 in0.3 mm
09:15 PM 32.9°F0.5°C 28.6°F-1.9°C 84% 3.2 mph NNW5.1 kmh NNW 6.9 mph11.1 kmh 29.39 in995.3 mb 0.00 in0.0 mm 0.00 in0.0 mm 0.01 in0.3 mm
09:20 PM 32.9°F0.5°C 28.6°F-1.9°C 84% 2.2 mph N3.5 kmh N 4.5 mph7.2 kmh 29.39 in995.3 mb 0.00 in0.0 mm 0.00 in0.0 mm 0.01 in0.3 mm
09:25 PM 32.9°F0.5°C 28.6°F-1.9°C 84% 2.2 mph N3.5 kmh N 4.5 mph7.2 kmh 29.39 in995.3 mb 0.00 in0.0 mm 0.00 in0.0 mm 0.01 in0.3 mm
09:30 PM 33.1°F0.6°C 28.8°F-1.8°C 84% 1.2 mph NW1.9 kmh NW 4.5 mph7.2 kmh 29.39 in995.3 mb 0.00 in0.0 mm 0.00 in0.0 mm 0.01 in0.3 mm
09:35 PM 33.1°F0.6°C 28.8°F-1.8°C 84% 1.4 mph NW2.3 kmh NW 4.5 mph7.2 kmh 29.39 in995.3 mb 0.00 in0.0 mm 0.00 in0.0 mm 0.01 in0.3 mm
09:40 PM 33.1°F0.6°C 28.8°F-1.8°C 84% 1.9 mph NW3.1 kmh NW 4.5 mph7.2 kmh 29.40 in995.6 mb 0.00 in0.0 mm 0.00 in0.0 mm 0.01 in0.3 mm
09:45 PM 33.1°F0.6°C 28.8°F-1.8°C 84% 2.0 mph NW3.2 kmh NW 4.5 mph7.2 kmh 29.40 in995.6 mb 0.00 in0.0 mm 0.00 in0.0 mm 0.01 in0.3 mm
09:50 PM 32.9°F0.5°C 28.6°F-1.9°C 84% 2.2 mph NW3.5 kmh NW 4.5 mph7.2 kmh 29.40 in995.6 mb 0.00 in0.0 mm 0.00 in0.0 mm 0.01 in0.3 mm
09:55 PM 32.9°F0.5°C 28.6°F-1.9°C 84% 1.6 mph NNW2.6 kmh NNW 4.5 mph7.2 kmh 29.41 in995.9 mb 0.00 in0.0 mm 0.00 in0.0 mm 0.01 in0.3 mm
10:00 PM 32.9°F0.5°C 28.6°F-1.9°C 84% 0.7 mph N1.1 kmh N 2.2 mph3.5 kmh 29.41 in995.9 mb 0.00 in0.0 mm 0.00 in0.0 mm 0.01 in0.3 mm
10:05 PM 32.5°F0.3°C 28.2°F-2.1°C 84% 1.1 mph NNW1.8 kmh NNW 3.8 mph6.1 kmh 29.41 in995.9 mb 0.00 in0.0 mm 0.00 in0.0 mm 0.01 in0.3 mm
10:10 PM 32.7°F0.4°C 28.4°F-2.0°C 84% 1.3 mph N2.1 kmh N 3.8 mph6.1 kmh 29.41 in995.9 mb 0.00 in0.0 mm 0.00 in0.0 mm 0.01 in0.3 mm
10:15 PM 32.7°F0.4°C 28.4°F-2.0°C 84% 1.5 mph NNW2.4 kmh NNW 4.5 mph7.2 kmh 29.41 in995.9 mb 0.00 in0.0 mm 0.00 in0.0 mm 0.01 in0.3 mm
10:20 PM 32.9°F0.5°C 28.9°F-1.7°C 85% 1.8 mph NW2.9 kmh NW 6.0 mph9.7 kmh 29.41 in995.9 mb 0.00 in0.0 mm 0.00 in0.0 mm 0.01 in0.3 mm
10:25 PM 32.9°F0.5°C 28.9°F-1.7°C 85% 2.7 mph NNW4.3 kmh NNW 9.2 mph14.8 kmh 29.41 in995.9 mb 0.00 in0.0 mm 0.00 in0.0 mm 0.01 in0.3 mm
10:30 PM 32.9°F0.5°C 28.9°F-1.7°C 85% 2.2 mph NNW3.5 kmh NNW 9.2 mph14.8 kmh 29.41 in995.9 mb 0.00 in0.0 mm 0.00 in0.0 mm 0.01 in0.3 mm
10:35 PM 32.9°F0.5°C 28.9°F-1.7°C 85% 1.5 mph NNW2.4 kmh NNW 5.4 mph8.7 kmh 29.41 in995.9 mb 0.00 in0.0 mm 0.00 in0.0 mm 0.01 in0.3 mm
10:40 PM 32.7°F0.4°C 28.7°F-1.8°C 85% 2.1 mph NW3.4 kmh NW 5.4 mph8.7 kmh 29.42 in996.3 mb 0.00 in0.0 mm 0.00 in0.0 mm 0.01 in0.3 mm
10:45 PM 32.7°F0.4°C 28.7°F-1.8°C 85% 2.4 mph NNW3.9 kmh NNW 5.4 mph8.7 kmh 29.42 in996.3 mb 0.00 in0.0 mm 0.00 in0.0 mm 0.01 in0.3 mm
10:50 PM 32.7°F0.4°C 28.7°F-1.8°C 85% 3.2 mph NNW5.1 kmh NNW 8.3 mph13.4 kmh 29.42 in996.3 mb 0.00 in0.0 mm 0.00 in0.0 mm 0.01 in0.3 mm
10:55 PM 32.7°F0.4°C 28.7°F-1.8°C 85% 5.7 mph N9.2 kmh N 14.5 mph23.3 kmh 29.43 in996.6 mb 0.00 in0.0 mm 0.00 in0.0 mm 0.01 in0.3 mm
11:00 PM 32.9°F0.5°C 28.9°F-1.7°C 85% 7.9 mph N12.7 kmh N 14.5 mph23.3 kmh 29.43 in996.6 mb 0.00 in0.0 mm 0.00 in0.0 mm 0.01 in0.3 mm
11:05 PM 32.7°F0.4°C 28.7°F-1.8°C 85% 6.5 mph N10.5 kmh N 14.5 mph23.3 kmh 29.42 in996.3 mb 0.00 in0.0 mm 0.00 in0.0 mm 0.01 in0.3 mm
11:10 PM 32.9°F0.5°C 28.9°F-1.7°C 85% 2.9 mph N4.7 kmh N 13.0 mph20.9 kmh 29.42 in996.3 mb 0.00 in0.0 mm 0.00 in0.0 mm 0.01 in0.3 mm
11:20 PM 32.7°F0.4°C 28.7°F-1.8°C 85% 2.6 mph NNW4.2 kmh NNW 6.9 mph11.1 kmh 29.43 in996.6 mb 0.00 in0.0 mm 0.00 in0.0 mm 0.01 in0.3 mm
11:25 PM 32.7°F0.4°C 28.7°F-1.8°C 85% 2.4 mph NW3.9 kmh NW 6.9 mph11.1 kmh 29.43 in996.6 mb 0.00 in0.0 mm 0.00 in0.0 mm 0.01 in0.3 mm
11:30 PM 32.7°F0.4°C 28.7°F-1.8°C 85% 2.5 mph NW4.0 kmh NW 5.4 mph8.7 kmh 29.44 in997.0 mb 0.00 in0.0 mm 0.00 in0.0 mm 0.01 in0.3 mm
11:35 PM 32.7°F0.4°C 28.7°F-1.8°C 85% 2.4 mph NW3.9 kmh NW 5.4 mph8.7 kmh 29.43 in996.6 mb 0.00 in0.0 mm 0.00 in0.0 mm 0.01 in0.3 mm
11:40 PM 32.7°F0.4°C 28.7°F-1.8°C 85% 2.3 mph NNW3.7 kmh NNW 5.4 mph8.7 kmh 29.44 in997.0 mb 0.00 in0.0 mm 0.00 in0.0 mm 0.01 in0.3 mm
11:45 PM 32.9°F0.5°C 28.9°F-1.7°C 85% 2.3 mph NNW3.7 kmh NNW 5.4 mph8.7 kmh 29.44 in997.0 mb 0.00 in0.0 mm 0.00 in0.0 mm 0.01 in0.3 mm
11:50 PM 32.9°F0.5°C 28.9°F-1.7°C 85% 2.6 mph N4.2 kmh N 9.2 mph14.8 kmh 29.44 in997.0 mb 0.00 in0.0 mm 0.00 in0.0 mm 0.01 in0.3 mm
11:55 PM 32.9°F0.5°C 28.9°F-1.7°C 85% 2.7 mph N4.3 kmh N 9.2 mph14.8 kmh 29.44 in997.0 mb 0.00 in0.0 mm 0.00 in0.0 mm 0.01 in0.3 mm